createdAt,value
2023-07-11T00:00:52.866Z,71.27
2023-07-11T00:03:19.825Z,71.35
2023-07-11T00:05:59.056Z,71.80
2023-07-11T00:08:25.663Z,72.22
2023-07-11T00:10:52.201Z,72.81
2023-07-11T00:13:18.831Z,72.12
2023-07-11T00:15:45.517Z,72.50
2023-07-11T00:18:12.165Z,71.82
2023-07-11T00:20:38.703Z,73.40
2023-07-11T00:23:05.408Z,73.84
2023-07-11T00:25:32.125Z,73.23
2023-07-11T00:27:58.703Z,72.82
2023-07-11T00:30:25.322Z,72.65
2023-07-11T00:32:52.072Z,72.57
2023-07-11T00:35:18.686Z,72.53
2023-07-11T00:37:45.276Z,72.21
2023-07-11T00:40:12.547Z,71.83
2023-07-11T00:42:39.123Z,71.81
2023-07-11T00:45:06.455Z,72.43
2023-07-11T00:47:33.229Z,72.27
2023-07-11T00:50:09.161Z,73.57
2023-07-11T00:52:37.876Z,74.75
2023-07-11T00:55:09.764Z,75.16
2023-07-11T00:57:40.678Z,74.82
2023-07-11T01:00:09.128Z,75.86
2023-07-11T01:02:35.952Z,75.48
2023-07-11T01:05:04.663Z,75.74
2023-07-11T01:07:35.819Z,75.91
2023-07-11T01:10:03.767Z,75.82
2023-07-11T01:12:30.635Z,75.61
2023-07-11T01:14:57.510Z,75.79
2023-07-11T01:17:28.422Z,76.77
2023-07-11T01:19:56.559Z,76.57
2023-07-11T01:22:24.763Z,75.48
2023-07-11T01:24:52.476Z,75.37
2023-07-11T01:27:21.125Z,75.02
2023-07-11T01:29:50.470Z,73.68
2023-07-11T01:32:18.502Z,74.02
2023-07-11T01:34:45.167Z,74.51
2023-07-11T01:37:12.248Z,75.07
2023-07-11T01:39:39.387Z,75.22
2023-07-11T01:42:06.454Z,74.86
2023-07-11T01:44:33.663Z,75.92
2023-07-11T01:47:03.341Z,76.00
2023-07-11T01:49:30.401Z,75.09
2023-07-11T01:52:12.436Z,75.88
2023-07-11T01:54:39.020Z,77.35
2023-07-11T01:57:06.703Z,78.60
2023-07-11T01:59:33.277Z,79.17
2023-07-11T02:01:59.869Z,78.15
2023-07-11T02:04:27.345Z,77.73
2023-07-11T02:06:54.565Z,78.74
2023-07-11T02:09:22.176Z,79.21
2023-07-11T02:11:49.633Z,79.50
2023-07-11T02:14:21.996Z,80.23
2023-07-11T02:19:20.000Z,80.48
2023-07-11T02:21:47.414Z,83.29
2023-07-11T02:24:16.379Z,83.63
2023-07-11T02:26:42.995Z,82.75
2023-07-11T02:29:10.050Z,83.38
2023-07-11T02:31:38.087Z,83.45
2023-07-11T02:34:05.145Z,84.12
2023-07-11T02:36:32.212Z,83.98
2023-07-11T02:38:59.537Z,82.94
2023-07-11T02:41:27.037Z,82.18
2023-07-11T02:43:53.896Z,82.05
2023-07-11T02:46:20.595Z,82.61
2023-07-11T02:48:47.265Z,83.22
2023-07-11T02:51:13.897Z,83.55
2023-07-11T02:53:40.506Z,83.52
2023-07-11T02:56:07.491Z,83.64
2023-07-11T02:58:34.308Z,83.80
2023-07-11T03:01:03.043Z,83.36
2023-07-11T03:03:29.751Z,85.27
2023-07-11T03:05:57.279Z,84.97
2023-07-11T03:08:24.432Z,84.44
2023-07-11T03:10:51.147Z,84.38
2023-07-11T03:13:19.379Z,83.84
2023-07-11T03:15:46.015Z,82.54
2023-07-11T03:18:14.053Z,82.75
2023-07-11T03:20:41.958Z,82.24
2023-07-11T03:23:11.069Z,82.16
2023-07-11T03:25:38.002Z,82.53
2023-07-11T03:28:05.129Z,83.16
2023-07-11T03:30:36.456Z,84.88
2023-07-11T03:33:03.764Z,83.63
2023-07-11T03:35:31.175Z,82.96
2023-07-11T03:37:57.771Z,84.57
2023-07-11T03:40:25.327Z,84.32
2023-07-11T03:42:52.673Z,84.47
2023-07-11T03:45:19.585Z,83.93
2023-07-11T03:47:46.165Z,83.50
2023-07-11T03:50:12.813Z,83.07
2023-07-11T03:52:39.375Z,83.90
2023-07-11T03:55:06.501Z,83.79
2023-07-11T03:57:33.054Z,83.85
2023-07-11T03:59:59.655Z,83.56
2023-07-11T04:02:26.327Z,82.18
2023-07-11T04:04:52.962Z,82.74
2023-07-11T04:07:19.608Z,82.59
2023-07-11T04:09:46.237Z,83.63
2023-07-11T04:12:12.784Z,82.27
2023-07-11T04:14:39.661Z,82.41
2023-07-11T04:17:06.353Z,83.03
2023-07-11T04:19:33.000Z,83.76
2023-07-11T04:21:59.587Z,83.86
2023-07-11T04:24:26.264Z,84.21
2023-07-11T04:26:52.810Z,83.66
2023-07-11T04:29:19.553Z,83.17
2023-07-11T04:31:46.183Z,82.67
2023-07-11T04:34:12.886Z,82.14
2023-07-11T04:36:39.513Z,81.38
2023-07-11T04:39:06.098Z,81.41
2023-07-11T04:41:32.821Z,81.70
2023-07-11T04:43:59.371Z,81.87
2023-07-11T04:46:26.883Z,82.33
2023-07-11T04:48:53.504Z,81.87
2023-07-11T04:51:20.282Z,81.58
2023-07-11T04:53:47.238Z,81.01
2023-07-11T04:56:14.036Z,80.69
2023-07-11T04:58:41.046Z,80.27
2023-07-11T05:01:10.462Z,80.25
2023-07-11T05:03:37.410Z,79.16
2023-07-11T05:06:05.704Z,79.71
2023-07-11T05:08:32.947Z,79.34
2023-07-11T05:11:06.387Z,79.70
2023-07-11T05:13:34.606Z,80.47
2023-07-11T05:16:08.165Z,79.79
2023-07-11T05:18:44.064Z,79.26
2023-07-11T05:21:14.069Z,79.12
2023-07-11T05:23:41.085Z,79.40
2023-07-11T05:26:08.816Z,80.17
2023-07-11T05:28:36.264Z,79.69
2023-07-11T05:31:04.991Z,78.96
2023-07-11T05:33:32.050Z,78.47
2023-07-11T05:36:20.726Z,78.87
2023-07-11T05:38:47.300Z,78.55
2023-07-11T05:41:14.229Z,78.50
2023-07-11T05:43:40.827Z,78.12
2023-07-11T05:46:07.639Z,77.78
2023-07-11T05:48:34.639Z,76.54
2023-07-11T05:51:03.841Z,76.83
2023-07-11T05:53:30.482Z,76.50
2023-07-11T05:55:58.575Z,75.56
2023-07-11T05:58:26.799Z,75.81
2023-07-11T06:00:54.834Z,75.56
2023-07-11T06:03:24.121Z,75.96
2023-07-11T06:05:51.545Z,74.76
2023-07-11T06:08:18.872Z,74.49
2023-07-11T06:10:45.726Z,74.29
2023-07-11T06:13:13.856Z,73.77
2023-07-11T06:15:40.771Z,72.43
2023-07-11T06:18:08.151Z,72.07
2023-07-11T06:20:34.926Z,72.45
2023-07-11T06:23:01.673Z,72.26
2023-07-11T06:25:28.244Z,71.03
2023-07-11T06:27:54.847Z,71.00
2023-07-11T06:30:21.622Z,71.00
2023-07-11T06:32:48.239Z,70.79
2023-07-11T06:35:14.941Z,69.31
2023-07-11T06:37:42.179Z,68.06
2023-07-11T06:40:10.146Z,67.89
2023-07-11T06:42:37.089Z,68.06
2023-07-11T06:45:04.569Z,68.29
2023-07-11T06:47:31.276Z,67.48
2023-07-11T06:49:57.875Z,67.35
2023-07-11T06:52:24.503Z,67.38
2023-07-11T06:54:51.168Z,66.71
2023-07-11T06:57:19.687Z,66.79
2023-07-11T06:59:48.547Z,64.82
2023-07-11T07:02:15.134Z,64.76
2023-07-11T07:04:41.801Z,63.68
2023-07-11T07:07:08.430Z,63.10
2023-07-11T07:09:35.043Z,63.20
2023-07-11T07:12:01.696Z,62.14
2023-07-11T07:14:28.396Z,62.46
2023-07-11T07:16:55.035Z,60.95
2023-07-11T07:19:21.613Z,60.08
2023-07-11T07:21:48.191Z,60.62
2023-07-11T07:24:14.765Z,60.58
2023-07-11T07:26:42.596Z,58.95
2023-07-11T07:29:09.511Z,59.30
2023-07-11T07:31:36.151Z,57.82
2023-07-11T07:34:02.991Z,58.64
2023-07-11T07:36:29.555Z,58.84
2023-07-11T07:38:56.203Z,55.46
2023-07-11T07:41:22.954Z,56.49
2023-07-11T07:43:49.664Z,55.36
2023-07-11T07:46:18.369Z,54.86
2023-07-11T07:48:45.928Z,55.36
2023-07-11T07:51:15.169Z,55.72
2023-07-11T07:53:42.046Z,54.34
2023-07-11T07:56:12.741Z,52.45
2023-07-11T07:58:43.963Z,52.59
2023-07-11T08:01:15.547Z,52.58
2023-07-11T08:03:43.130Z,51.77
2023-07-11T08:06:16.088Z,51.64
2023-07-11T08:08:45.381Z,51.88
2023-07-11T08:11:12.771Z,52.05
2023-07-11T08:13:53.633Z,52.05
2023-07-11T08:16:31.812Z,51.21
2023-07-11T08:19:01.037Z,51.59
2023-07-11T08:21:27.772Z,51.42
2023-07-11T08:23:54.440Z,50.64
2023-07-11T08:26:23.354Z,50.12
2023-07-11T08:28:53.096Z,50.64
2023-07-11T08:31:20.022Z,50.28
2023-07-11T08:33:46.970Z,50.32
2023-07-11T08:36:14.215Z,50.78
2023-07-11T08:38:40.793Z,50.07
2023-07-11T08:41:13.086Z,50.16
2023-07-11T08:43:40.324Z,49.95
2023-07-11T08:46:13.183Z,48.88
2023-07-11T08:48:51.135Z,49.23
2023-07-11T08:51:26.869Z,49.02
2023-07-11T08:54:40.006Z,48.10
2023-07-11T08:57:10.645Z,48.83
2023-07-11T08:59:55.980Z,47.91
2023-07-11T09:02:32.179Z,48.31
2023-07-11T09:05:00.466Z,48.06
2023-07-11T09:07:37.924Z,47.86
2023-07-11T09:10:38.676Z,47.52
2023-07-11T09:13:17.038Z,46.81
2023-07-11T09:16:06.810Z,48.15
2023-07-11T09:18:56.850Z,46.54
2023-07-11T09:21:32.412Z,46.36
2023-07-11T09:24:21.763Z,46.29
2023-07-11T09:26:51.125Z,46.81
2023-07-11T09:29:20.705Z,46.00
2023-07-11T09:31:54.319Z,45.13
2023-07-11T09:34:27.125Z,45.24
2023-07-11T09:37:00.412Z,46.30
2023-07-11T09:39:48.506Z,45.80
2023-07-11T09:42:39.418Z,45.30
2023-07-11T09:45:19.600Z,44.71
2023-07-11T09:47:52.958Z,44.78
2023-07-11T09:50:39.109Z,43.84
2023-07-11T09:53:20.306Z,44.46
2023-07-11T09:55:49.967Z,43.89
2023-07-11T09:58:18.838Z,43.58
2023-07-11T10:00:52.047Z,42.73
2023-07-11T10:03:23.577Z,43.44
2023-07-11T10:05:53.214Z,43.25
2023-07-11T10:08:28.175Z,42.98
2023-07-11T10:10:56.105Z,43.07
2023-07-11T10:13:26.355Z,42.78
2023-07-11T10:16:00.434Z,42.60
2023-07-11T10:18:31.723Z,43.00
2023-07-11T10:21:03.084Z,41.83
2023-07-11T10:23:29.896Z,41.78
2023-07-11T10:26:16.607Z,41.29
2023-07-11T10:28:48.412Z,41.64
2023-07-11T10:31:21.538Z,41.43
2023-07-11T10:33:57.460Z,41.42
2023-07-11T10:36:32.123Z,41.08
2023-07-11T10:39:05.679Z,40.65
2023-07-11T10:41:41.736Z,40.90
2023-07-11T10:44:16.313Z,40.26
2023-07-11T10:46:51.761Z,40.44
2023-07-11T10:49:51.595Z,40.07
2023-07-11T10:52:25.069Z,39.35
2023-07-11T10:54:56.649Z,38.04
2023-07-11T10:57:44.022Z,38.56
2023-07-11T11:00:17.564Z,38.43
2023-07-11T11:02:47.127Z,38.88
2023-07-11T11:05:39.243Z,38.95
2023-07-11T11:08:15.576Z,38.69
2023-07-11T11:10:53.252Z,39.10
2023-07-11T11:13:32.081Z,39.47
2023-07-11T11:16:32.695Z,38.09
2023-07-11T11:19:34.319Z,38.36
2023-07-11T11:22:17.193Z,38.26
2023-07-11T11:25:01.332Z,38.16
2023-07-11T11:28:17.289Z,38.75
2023-07-11T11:31:22.565Z,37.04
2023-07-11T11:33:49.108Z,37.78
2023-07-11T11:36:29.399Z,36.62
2023-07-11T11:39:11.219Z,36.30
2023-07-11T11:41:44.519Z,36.76
2023-07-11T11:49:39.390Z,37.16
2023-07-11T11:52:08.658Z,36.75
2023-07-11T11:54:47.796Z,36.12
2023-07-11T11:57:25.123Z,36.29
2023-07-11T11:59:52.612Z,36.92
2023-07-11T12:02:27.152Z,36.86
2023-07-11T12:05:18.300Z,36.12
2023-07-11T12:07:48.046Z,36.50
2023-07-11T12:10:23.697Z,35.99
2023-07-11T12:13:17.444Z,35.01
2023-07-11T12:15:49.044Z,35.69
2023-07-11T12:18:28.700Z,34.71
2023-07-11T12:21:17.813Z,34.60
2023-07-11T12:24:30.209Z,34.16
2023-07-11T12:26:36.431Z,33.81
2023-07-11T12:29:40.153Z,33.76
2023-07-11T12:32:47.539Z,30.85
2023-07-11T12:35:24.082Z,29.25
2023-07-11T12:38:02.479Z,27.61
2023-07-11T12:40:38.873Z,27.86
2023-07-11T12:43:16.574Z,27.69
2023-07-11T12:45:48.952Z,29.60
2023-07-11T12:48:24.121Z,29.18
2023-07-11T12:50:56.777Z,26.88
2023-07-11T12:53:23.374Z,26.25
2023-07-11T12:55:53.087Z,28.85
2023-07-11T12:58:32.343Z,32.37
2023-07-11T13:01:00.071Z,29.92
2023-07-11T13:03:37.504Z,27.58
2023-07-11T13:06:22.070Z,30.24
2023-07-11T13:08:49.480Z,26.98
2023-07-11T13:11:21.708Z,26.39
2023-07-11T13:13:49.461Z,26.73
2023-07-11T13:16:16.417Z,27.77
2023-07-11T13:18:45.818Z,25.18
2023-07-11T13:21:12.881Z,26.93
2023-07-11T13:23:42.799Z,27.66
2023-07-11T13:26:11.908Z,27.37
2023-07-11T13:28:40.362Z,26.94
2023-07-11T13:31:08.356Z,26.35
2023-07-11T13:38:51.971Z,26.82
2023-07-11T13:41:20.643Z,24.40
2023-07-11T13:43:47.601Z,23.24
2023-07-11T13:46:16.395Z,24.67
2023-07-11T13:48:47.253Z,25.12
2023-07-11T13:51:34.353Z,24.56
2023-07-11T13:54:22.574Z,23.78
2023-07-11T13:56:49.494Z,23.64
2023-07-11T13:59:18.257Z,23.53
2023-07-11T14:01:45.814Z,23.30
2023-07-11T14:04:21.249Z,25.19
2023-07-11T14:06:48.158Z,26.74
2023-07-11T14:09:14.804Z,26.02
2023-07-11T14:11:45.488Z,26.32
2023-07-11T14:14:24.865Z,24.23
2023-07-11T14:17:01.795Z,23.74
2023-07-11T14:19:33.990Z,21.20
2023-07-11T14:22:03.702Z,21.84
2023-07-11T14:24:30.338Z,23.93
2023-07-11T14:26:56.910Z,20.92
2023-07-11T14:29:25.514Z,19.42
2023-07-11T14:31:53.721Z,20.34
2023-07-11T14:34:26.229Z,20.85
2023-07-11T14:36:54.934Z,23.94
2023-07-11T14:39:22.381Z,26.49
2023-07-11T14:41:50.783Z,26.58
2023-07-11T14:44:24.843Z,25.08
2023-07-11T14:46:52.011Z,28.62
2023-07-11T14:49:19.915Z,27.88
2023-07-11T14:51:48.261Z,25.82
2023-07-11T14:54:19.120Z,26.13
2023-07-11T14:59:23.313Z,25.41
2023-07-11T15:01:51.236Z,22.30
2023-07-11T15:11:52.235Z,20.21
2023-07-11T15:16:52.840Z,21.11
2023-07-11T15:19:26.839Z,19.76
2023-07-11T15:22:07.959Z,20.33
2023-07-11T15:24:45.406Z,20.45
2023-07-11T15:27:17.569Z,19.59
2023-07-11T15:29:44.285Z,20.91
2023-07-11T15:32:23.416Z,21.31
2023-07-11T15:34:50.616Z,18.96
2023-07-11T15:37:17.960Z,19.74
2023-07-11T15:39:44.590Z,18.62
2023-07-11T15:42:20.038Z,21.25
2023-07-11T15:44:52.846Z,19.43
2023-07-11T15:47:19.686Z,19.44
2023-07-11T15:49:46.936Z,21.12
2023-07-11T15:52:13.588Z,20.15
2023-07-11T15:54:40.216Z,19.83
2023-07-11T15:57:27.733Z,20.13
2023-07-11T15:59:56.605Z,21.01
2023-07-11T16:02:25.158Z,20.44
2023-07-11T16:04:52.818Z,20.87
2023-07-11T16:07:22.075Z,21.40
2023-07-11T16:09:49.012Z,23.17
2023-07-11T16:12:17.548Z,25.74
2023-07-11T16:14:45.566Z,24.84
2023-07-11T16:17:17.211Z,24.57
2023-07-11T16:19:47.657Z,26.45
2023-07-11T16:22:18.294Z,25.23
2023-07-11T16:24:45.563Z,26.48
2023-07-11T16:27:18.147Z,26.57
2023-07-11T16:29:48.662Z,26.77
2023-07-11T16:32:16.223Z,27.81
2023-07-11T16:34:44.997Z,26.01
2023-07-11T16:37:21.289Z,26.26
2023-07-11T16:39:48.926Z,26.18
2023-07-11T16:42:20.080Z,25.08
2023-07-11T16:44:46.719Z,26.87
2023-07-11T16:47:13.435Z,26.98
2023-07-11T16:49:40.949Z,26.64
2023-07-11T16:52:13.747Z,25.94
2023-07-11T16:54:41.096Z,26.71
2023-07-11T16:57:17.484Z,24.26
2023-07-11T16:59:44.156Z,24.46
2023-07-11T17:02:34.179Z,22.63
2023-07-11T17:05:01.170Z,24.67
2023-07-11T17:07:30.395Z,23.97
2023-07-11T17:09:58.789Z,24.67
2023-07-11T17:12:26.331Z,22.67
2023-07-11T17:14:53.780Z,21.36
2023-07-11T17:17:27.254Z,22.19
2023-07-11T17:19:57.315Z,21.22
2023-07-11T17:22:24.523Z,21.63
2023-07-11T17:24:51.185Z,23.40
2023-07-11T17:27:23.033Z,22.26
2023-07-11T17:29:52.324Z,22.56
2023-07-11T17:32:22.781Z,22.39
2023-07-11T17:34:50.412Z,21.92
2023-07-11T17:37:31.073Z,23.03
2023-07-11T17:39:58.474Z,22.19
2023-07-11T17:42:26.320Z,22.14
2023-07-11T17:44:56.766Z,23.04
2023-07-11T17:49:59.084Z,23.82
2023-07-11T17:52:29.173Z,24.51
2023-07-11T17:54:56.198Z,25.61
2023-07-11T17:57:27.867Z,24.71
2023-07-11T17:59:54.627Z,27.98
2023-07-11T18:02:27.367Z,26.18
2023-07-11T18:04:56.828Z,26.90
2023-07-11T18:07:26.244Z,27.09
2023-07-11T18:09:53.604Z,27.40
2023-07-11T18:12:29.675Z,28.73
2023-07-11T18:14:56.870Z,30.58
2023-07-11T18:17:27.701Z,31.30
2023-07-11T18:19:54.395Z,33.08
2023-07-11T18:22:26.121Z,33.43
2023-07-11T18:24:55.828Z,34.52
2023-07-11T18:27:28.868Z,36.47
2023-07-11T18:29:56.004Z,35.13
2023-07-11T18:32:25.245Z,34.89
2023-07-11T18:34:55.194Z,34.78
2023-07-11T18:37:23.592Z,35.41
2023-07-11T18:39:50.369Z,35.90
2023-07-11T18:42:22.704Z,36.69
2023-07-11T18:44:51.390Z,37.60
2023-07-11T18:47:34.053Z,37.34
2023-07-11T18:50:01.108Z,37.47
2023-07-11T18:52:29.669Z,37.59
2023-07-11T18:54:58.359Z,37.94
2023-07-11T18:57:29.231Z,38.71
2023-07-11T18:59:56.727Z,39.31
2023-07-11T19:02:28.756Z,39.41
2023-07-11T19:04:58.223Z,39.81
2023-07-11T19:07:30.235Z,40.96
2023-07-11T19:09:59.123Z,41.01
2023-07-11T19:12:37.172Z,41.13
2023-07-11T19:15:11.768Z,41.24
2023-07-11T19:17:58.474Z,41.86
2023-07-11T19:20:30.649Z,42.03
2023-07-11T19:22:59.351Z,42.45
2023-07-11T19:25:28.824Z,42.48
2023-07-11T19:28:00.904Z,42.36
2023-07-11T19:30:29.735Z,43.04
2023-07-11T19:32:58.457Z,43.24
2023-07-11T19:35:27.377Z,43.70
2023-07-11T19:37:57.303Z,44.27
2023-07-11T19:40:28.258Z,45.34
2023-07-11T19:42:55.759Z,45.74
2023-07-11T19:45:25.366Z,45.24
2023-07-11T19:47:52.087Z,46.53
2023-07-11T19:50:40.344Z,46.59
2023-07-11T19:53:09.489Z,46.84
2023-07-11T19:55:37.353Z,46.93
2023-07-11T19:58:05.598Z,47.23
2023-07-11T20:00:33.904Z,47.34
2023-07-11T20:03:01.252Z,47.25
2023-07-11T20:05:28.907Z,47.12
2023-07-11T20:07:56.358Z,46.93
2023-07-11T20:10:42.074Z,47.00
2023-07-11T20:13:15.261Z,46.98
2023-07-11T20:15:53.747Z,47.11
2023-07-11T20:18:22.245Z,47.08
2023-07-11T20:20:54.308Z,46.89
2023-07-11T20:23:21.100Z,47.32
2023-07-11T20:25:53.364Z,47.09
2023-07-11T20:28:21.776Z,47.31
2023-07-11T20:30:55.245Z,47.94
2023-07-11T20:33:22.643Z,48.31
2023-07-11T20:35:52.439Z,47.74
2023-07-11T20:38:22.498Z,48.11
2023-07-11T20:40:50.464Z,48.57
2023-07-11T20:43:18.583Z,48.34
2023-07-11T20:45:47.778Z,48.79
2023-07-11T20:48:22.793Z,47.83
2023-07-11T20:50:51.705Z,48.66
2023-07-11T20:53:21.868Z,49.02
2023-07-11T20:55:52.733Z,49.06
2023-07-11T20:58:19.671Z,48.67
2023-07-11T21:00:46.996Z,49.84
2023-07-11T21:03:15.389Z,49.51
2023-07-11T21:05:44.412Z,49.17
2023-07-11T21:08:31.760Z,49.65
2023-07-11T21:11:01.430Z,50.48
2023-07-11T21:13:28.150Z,50.38
2023-07-11T21:15:55.961Z,50.23
2023-07-11T21:18:24.228Z,50.13
2023-07-11T21:20:54.905Z,49.79
2023-07-11T21:23:22.929Z,50.01
2023-07-11T21:25:49.906Z,50.41
2023-07-11T21:28:31.451Z,50.42
2023-07-11T21:31:04.018Z,50.23
2023-07-11T21:33:32.293Z,50.49
2023-07-11T21:36:01.743Z,49.97
2023-07-11T21:38:30.697Z,50.08
2023-07-11T21:40:59.878Z,49.97
2023-07-11T21:43:26.633Z,50.45
2023-07-11T21:45:56.094Z,50.29
2023-07-11T21:48:28.468Z,49.98
2023-07-11T21:51:00.310Z,49.97
2023-07-11T21:53:30.010Z,50.36
2023-07-11T21:56:13.284Z,49.87
2023-07-11T21:58:39.884Z,50.21
2023-07-11T22:01:07.453Z,49.98
2023-07-11T22:03:36.115Z,50.13
2023-07-11T22:06:11.115Z,49.87
2023-07-11T22:08:37.664Z,49.67
2023-07-11T22:11:04.264Z,50.25
2023-07-11T22:13:33.407Z,50.02
2023-07-11T22:16:00.251Z,50.22
2023-07-11T22:18:30.088Z,49.56
2023-07-11T22:20:57.774Z,50.12
2023-07-11T22:23:24.867Z,49.77
2023-07-11T22:25:51.450Z,50.05
2023-07-11T22:28:21.416Z,50.18
2023-07-11T22:30:50.000Z,50.21
2023-07-11T22:33:18.002Z,50.37
2023-07-11T22:35:45.618Z,50.10
2023-07-11T22:38:17.312Z,49.95
2023-07-11T22:40:46.646Z,50.13
2023-07-11T22:43:30.458Z,49.51
2023-07-11T22:45:59.064Z,49.37
2023-07-11T22:48:28.325Z,49.68
2023-07-11T22:50:59.770Z,49.95
2023-07-11T22:53:29.471Z,49.55
2023-07-11T22:55:59.315Z,49.72
2023-07-11T22:58:34.570Z,49.39
2023-07-11T23:01:04.553Z,49.64
2023-07-11T23:03:31.650Z,49.20
2023-07-11T23:06:26.834Z,49.16
2023-07-11T23:08:54.963Z,49.37
2023-07-11T23:11:22.989Z,49.37
2023-07-11T23:13:49.772Z,49.45
2023-07-11T23:16:28.902Z,49.63
2023-07-11T23:18:57.669Z,48.70
2023-07-11T23:21:24.424Z,48.36
2023-07-11T23:23:51.012Z,48.61
2023-07-11T23:26:18.305Z,48.16
2023-07-11T23:28:45.361Z,47.90
2023-07-11T23:31:13.781Z,47.89
2023-07-11T23:33:41.016Z,48.01
2023-07-11T23:36:15.909Z,47.51
2023-07-11T23:38:42.403Z,47.65
2023-07-11T23:41:15.276Z,47.49
2023-07-11T23:43:43.376Z,47.96
2023-07-11T23:46:32.081Z,47.17
2023-07-11T23:48:59.420Z,47.37
2023-07-11T23:51:28.945Z,48.28
2023-07-11T23:53:55.964Z,48.08
2023-07-11T23:56:29.204Z,48.04
2023-07-11T23:58:57.278Z,47.67
